首页
METAR-TAF:

METAR-TAF

机场 :

Mackinac Island Airport

Mackinac Island, 密歇根州, 美国

纬度: 45-51-54N, 经度: 084-38-14W, 海拔: 226米

当前天气观测

该预报发布于12分钟前的16:15 UTC
风速8节,风向南转南东,有时为18节阵风
温度 -7°C
湿度 67%
气压 1024 hPa
能見度: 16.1公里
天空无云

METAR: KMCD 171615Z AUTO 15008G18KT 10SM CLR M07/M12 A3025 RMK AO2 T10721125

时间: 11:27 (16:27 UTC)


TAF: 丢失

超过4000个机场的气象观测和天气预报(METAR&TAF报告)。

可查询的气象台以黄色和红色小点在地图上表示。

将鼠标移到小点上方,可查看气象台名称。

然后点击查看天气观测和预报。

如需切换地图:点击带黑十字的绿色按钮放大地图;点击带横线的绿色按钮缩小地图;或者点击绿色箭头查看邻近地区的地图。


METAR-TAF: